sensor_id;sensor_type;location;lat;lon;timestamp;P1;durP1;ratioP1;P2;durP2;ratioP2
17848;SDS011;9050;48.746;9.232;2023-02-11T00:01:32;1.77;;;1.70;;
17848;SDS011;9050;48.746;9.232;2023-02-11T00:04:01;2.60;;;2.50;;
17848;SDS011;9050;48.746;9.232;2023-02-11T00:06:29;1.50;;;1.50;;
17848;SDS011;9050;48.746;9.232;2023-02-11T00:08:57;2.40;;;2.30;;
17848;SDS011;9050;48.746;9.232;2023-02-11T00:11:25;1.60;;;1.60;;
17848;SDS011;9050;48.746;9.232;2023-02-11T00:13:57;1.83;;;1.73;;
17848;SDS011;9050;48.746;9.232;2023-02-11T00:16:25;1.97;;;1.87;;
17848;SDS011;9050;48.746;9.232;2023-02-11T00:18:53;2.13;;;2.03;;
17848;SDS011;9050;48.746;9.232;2023-02-11T00:21:22;2.10;;;2.00;;
17848;SDS011;9050;48.746;9.232;2023-02-11T00:23:50;1.80;;;1.70;;
17848;SDS011;9050;48.746;9.232;2023-02-11T00:26:18;1.60;;;1.60;;
17848;SDS011;9050;48.746;9.232;2023-02-11T00:28:47;1.67;;;1.67;;
17848;SDS011;9050;48.746;9.232;2023-02-11T00:31:16;1.50;;;1.50;;
17848;SDS011;9050;48.746;9.232;2023-02-11T00:33:45;1.47;;;1.47;;
17848;SDS011;9050;48.746;9.232;2023-02-11T00:36:13;1.47;;;1.47;;
17848;SDS011;9050;48.746;9.232;2023-02-11T00:38:41;1.73;;;1.67;;
17848;SDS011;9050;48.746;9.232;2023-02-11T00:41:09;2.00;;;1.90;;
17848;SDS011;9050;48.746;9.232;2023-02-11T00:43:35;1.80;;;1.70;;
17848;SDS011;9050;48.746;9.232;2023-02-11T00:46:03;2.23;;;2.13;;
17848;SDS011;9050;48.746;9.232;2023-02-11T00:48:31;1.40;;;1.40;;
17848;SDS011;9050;48.746;9.232;2023-02-11T00:50:58;2.10;;;2.00;;
17848;SDS011;9050;48.746;9.232;2023-02-11T00:53:25;1.33;;;1.33;;
17848;SDS011;9050;48.746;9.232;2023-02-11T00:55:53;2.20;;;2.10;;
17848;SDS011;9050;48.746;9.232;2023-02-11T00:58:20;2.33;;;2.23;;
17848;SDS011;9050;48.746;9.232;2023-02-11T01:00:47;2.23;;;2.13;;
17848;SDS011;9050;48.746;9.232;2023-02-11T01:03:14;2.40;;;2.30;;
17848;SDS011;9050;48.746;9.232;2023-02-11T01:05:42;2.30;;;2.20;;
17848;SDS011;9050;48.746;9.232;2023-02-11T01:08:09;1.67;;;1.63;;
17848;SDS011;9050;48.746;9.232;2023-02-11T01:10:36;2.73;;;2.63;;
17848;SDS011;9050;48.746;9.232;2023-02-11T01:13:03;2.90;;;2.80;;
17848;SDS011;9050;48.746;9.232;2023-02-11T01:15:31;2.27;;;2.17;;
17848;SDS011;9050;48.746;9.232;2023-02-11T01:17:58;2.07;;;1.97;;
17848;SDS011;9050;48.746;9.232;2023-02-11T01:20:26;2.47;;;2.37;;
17848;SDS011;9050;48.746;9.232;2023-02-11T01:22:55;1.67;;;1.63;;
17848;SDS011;9050;48.746;9.232;2023-02-11T01:25:22;2.27;;;2.17;;
17848;SDS011;9050;48.746;9.232;2023-02-11T01:27:49;1.73;;;1.67;;
17848;SDS011;9050;48.746;9.232;2023-02-11T01:30:16;2.37;;;2.27;;
17848;SDS011;9050;48.746;9.232;2023-02-11T01:32:43;1.77;;;1.70;;
17848;SDS011;9050;48.746;9.232;2023-02-11T01:35:10;1.50;;;1.50;;
17848;SDS011;9050;48.746;9.232;2023-02-11T01:37:37;1.83;;;1.73;;
17848;SDS011;9050;48.746;9.232;2023-02-11T01:40:06;2.43;;;2.33;;
17848;SDS011;9050;48.746;9.232;2023-02-11T01:42:38;2.13;;;2.03;;
17848;SDS011;9050;48.746;9.232;2023-02-11T01:48:11;2.20;;;2.10;;
17848;SDS011;9050;48.746;9.232;2023-02-11T01:50:41;1.80;;;1.73;;
17848;SDS011;9050;48.746;9.232;2023-02-11T01:53:10;1.53;;;1.53;;
17848;SDS011;9050;48.746;9.232;2023-02-11T01:55:56;1.83;;;1.73;;
17848;SDS011;9050;48.746;9.232;2023-02-11T01:58:42;2.07;;;1.97;;
17848;SDS011;9050;48.746;9.232;2023-02-11T02:01:13;2.37;;;2.27;;
17848;SDS011;9050;48.746;9.232;2023-02-11T02:03:44;1.37;;;1.37;;
17848;SDS011;9050;48.746;9.232;2023-02-11T02:06:14;2.60;;;2.50;;
17848;SDS011;9050;48.746;9.232;2023-02-11T02:08:46;1.37;;;1.37;;
17848;SDS011;9050;48.746;9.232;2023-02-11T02:11:18;2.70;;;2.60;;
17848;SDS011;9050;48.746;9.232;2023-02-11T02:13:46;2.40;;;2.30;;
17848;SDS011;9050;48.746;9.232;2023-02-11T02:16:13;1.93;;;1.83;;
17848;SDS011;9050;48.746;9.232;2023-02-11T02:18:43;2.17;;;2.07;;
17848;SDS011;9050;48.746;9.232;2023-02-11T02:24:37;2.57;;;2.47;;
17848;SDS011;9050;48.746;9.232;2023-02-11T02:27:31;2.43;;;2.33;;
17848;SDS011;9050;48.746;9.232;2023-02-11T02:33:14;2.37;;;2.27;;
17848;SDS011;9050;48.746;9.232;2023-02-11T02:35:52;2.33;;;2.23;;
17848;SDS011;9050;48.746;9.232;2023-02-11T02:38:29;2.20;;;2.10;;
17848;SDS011;9050;48.746;9.232;2023-02-11T02:41:01;2.00;;;1.90;;
17848;SDS011;9050;48.746;9.232;2023-02-11T02:43:31;2.63;;;2.53;;
17848;SDS011;9050;48.746;9.232;2023-02-11T02:46:09;2.00;;;1.90;;
17848;SDS011;9050;48.746;9.232;2023-02-11T02:48:38;1.27;;;1.27;;
17848;SDS011;9050;48.746;9.232;2023-02-11T02:51:07;2.40;;;2.30;;
17848;SDS011;9050;48.746;9.232;2023-02-11T02:53:49;1.97;;;1.87;;
17848;SDS011;9050;48.746;9.232;2023-02-11T02:56:24;2.27;;;2.17;;
17848;SDS011;9050;48.746;9.232;2023-02-11T02:59:02;2.00;;;1.90;;
17848;SDS011;9050;48.746;9.232;2023-02-11T03:01:41;2.67;;;2.57;;
17848;SDS011;9050;48.746;9.232;2023-02-11T03:04:16;1.93;;;1.83;;
17848;SDS011;9050;48.746;9.232;2023-02-11T03:06:51;1.57;;;1.57;;
17848;SDS011;9050;48.746;9.232;2023-02-11T03:09:23;1.20;;;1.20;;
17848;SDS011;9050;48.746;9.232;2023-02-11T03:11:54;2.43;;;2.33;;
17848;SDS011;9050;48.746;9.232;2023-02-11T03:14:21;1.27;;;1.27;;
17848;SDS011;9050;48.746;9.232;2023-02-11T03:16:51;2.00;;;1.90;;
17848;SDS011;9050;48.746;9.232;2023-02-11T03:19:23;1.67;;;1.67;;
17848;SDS011;9050;48.746;9.232;2023-02-11T03:21:53;2.13;;;2.03;;
17848;SDS011;9050;48.746;9.232;2023-02-11T03:24:23;2.00;;;1.90;;
17848;SDS011;9050;48.746;9.232;2023-02-11T03:26:55;1.53;;;1.53;;
17848;SDS011;9050;48.746;9.232;2023-02-11T03:29:29;1.70;;;1.67;;
17848;SDS011;9050;48.746;9.232;2023-02-11T03:32:00;1.00;;;1.00;;
17848;SDS011;9050;48.746;9.232;2023-02-11T03:34:34;2.40;;;2.30;;
17848;SDS011;9050;48.746;9.232;2023-02-11T03:37:09;1.97;;;1.87;;
17848;SDS011;9050;48.746;9.232;2023-02-11T03:39:41;2.03;;;1.93;;
17848;SDS011;9050;48.746;9.232;2023-02-11T03:42:11;1.93;;;1.83;;
17848;SDS011;9050;48.746;9.232;2023-02-11T03:44:40;1.60;;;1.60;;
17848;SDS011;9050;48.746;9.232;2023-02-11T03:47:11;1.70;;;1.67;;
17848;SDS011;9050;48.746;9.232;2023-02-11T03:49:48;1.73;;;1.70;;
17848;SDS011;9050;48.746;9.232;2023-02-11T03:52:17;1.53;;;1.53;;
17848;SDS011;9050;48.746;9.232;2023-02-11T03:54:45;2.30;;;2.20;;
17848;SDS011;9050;48.746;9.232;2023-02-11T03:57:16;1.17;;;1.17;;
17848;SDS011;9050;48.746;9.232;2023-02-11T03:59:50;2.00;;;1.90;;
17848;SDS011;9050;48.746;9.232;2023-02-11T04:02:18;2.13;;;2.03;;
17848;SDS011;9050;48.746;9.232;2023-02-11T04:04:47;2.20;;;2.10;;
17848;SDS011;9050;48.746;9.232;2023-02-11T04:07:14;2.50;;;2.40;;
17848;SDS011;9050;48.746;9.232;2023-02-11T04:09:41;2.00;;;1.90;;
17848;SDS011;9050;48.746;9.232;2023-02-11T04:12:08;2.00;;;1.90;;
17848;SDS011;9050;48.746;9.232;2023-02-11T04:14:35;2.13;;;2.03;;
17848;SDS011;9050;48.746;9.232;2023-02-11T04:17:02;1.80;;;1.70;;
17848;SDS011;9050;48.746;9.232;2023-02-11T04:19:30;1.87;;;1.77;;
17848;SDS011;9050;48.746;9.232;2023-02-11T04:21:58;2.03;;;1.93;;
17848;SDS011;9050;48.746;9.232;2023-02-11T04:24:25;2.17;;;2.07;;
17848;SDS011;9050;48.746;9.232;2023-02-11T04:26:52;2.13;;;2.03;;
17848;SDS011;9050;48.746;9.232;2023-02-11T04:29:19;2.13;;;2.03;;
17848;SDS011;9050;48.746;9.232;2023-02-11T04:31:46;1.60;;;1.60;;
17848;SDS011;9050;48.746;9.232;2023-02-11T04:34:13;1.50;;;1.50;;
17848;SDS011;9050;48.746;9.232;2023-02-11T04:36:40;2.20;;;2.10;;
17848;SDS011;9050;48.746;9.232;2023-02-11T04:39:08;1.50;;;1.50;;
17848;SDS011;9050;48.746;9.232;2023-02-11T04:41:35;1.80;;;1.70;;
17848;SDS011;9050;48.746;9.232;2023-02-11T04:44:02;1.73;;;1.67;;
17848;SDS011;9050;48.746;9.232;2023-02-11T04:46:30;2.47;;;2.37;;
17848;SDS011;9050;48.746;9.232;2023-02-11T04:48:56;1.53;;;1.53;;
17848;SDS011;9050;48.746;9.232;2023-02-11T04:51:23;1.53;;;1.53;;
17848;SDS011;9050;48.746;9.232;2023-02-11T04:53:50;1.37;;;1.37;;
17848;SDS011;9050;48.746;9.232;2023-02-11T04:56:19;1.40;;;1.40;;
17848;SDS011;9050;48.746;9.232;2023-02-11T04:58:46;2.00;;;1.90;;
17848;SDS011;9050;48.746;9.232;2023-02-11T05:01:13;2.37;;;2.27;;
17848;SDS011;9050;48.746;9.232;2023-02-11T05:03:41;1.43;;;1.43;;
17848;SDS011;9050;48.746;9.232;2023-02-11T05:06:08;1.97;;;1.87;;
17848;SDS011;9050;48.746;9.232;2023-02-11T05:08:36;1.43;;;1.43;;
17848;SDS011;9050;48.746;9.232;2023-02-11T05:11:03;1.97;;;1.87;;
17848;SDS011;9050;48.746;9.232;2023-02-11T05:13:32;1.77;;;1.70;;
17848;SDS011;9050;48.746;9.232;2023-02-11T05:15:59;2.17;;;2.07;;
17848;SDS011;9050;48.746;9.232;2023-02-11T05:18:26;1.30;;;1.30;;
17848;SDS011;9050;48.746;9.232;2023-02-11T05:20:53;1.57;;;1.57;;
17848;SDS011;9050;48.746;9.232;2023-02-11T05:23:20;2.10;;;2.00;;
17848;SDS011;9050;48.746;9.232;2023-02-11T05:25:47;2.10;;;2.00;;
17848;SDS011;9050;48.746;9.232;2023-02-11T05:28:14;1.97;;;1.87;;
17848;SDS011;9050;48.746;9.232;2023-02-11T05:30:42;1.97;;;1.87;;
17848;SDS011;9050;48.746;9.232;2023-02-11T05:33:09;1.93;;;1.83;;
17848;SDS011;9050;48.746;9.232;2023-02-11T05:35:36;1.57;;;1.57;;
17848;SDS011;9050;48.746;9.232;2023-02-11T05:38:02;2.10;;;2.00;;
17848;SDS011;9050;48.746;9.232;2023-02-11T05:40:29;2.13;;;2.03;;
17848;SDS011;9050;48.746;9.232;2023-02-11T05:42:56;1.47;;;1.47;;
17848;SDS011;9050;48.746;9.232;2023-02-11T05:45:23;2.10;;;2.00;;
17848;SDS011;9050;48.746;9.232;2023-02-11T05:47:51;1.50;;;1.50;;
17848;SDS011;9050;48.746;9.232;2023-02-11T05:50:18;2.40;;;2.30;;
17848;SDS011;9050;48.746;9.232;2023-02-11T05:52:46;2.10;;;2.00;;
17848;SDS011;9050;48.746;9.232;2023-02-11T05:55:13;2.33;;;2.23;;
17848;SDS011;9050;48.746;9.232;2023-02-11T05:57:40;1.80;;;1.70;;
17848;SDS011;9050;48.746;9.232;2023-02-11T06:00:07;1.70;;;1.67;;
17848;SDS011;9050;48.746;9.232;2023-02-11T06:02:36;0.80;;;0.80;;
17848;SDS011;9050;48.746;9.232;2023-02-11T06:05:04;1.10;;;1.10;;
17848;SDS011;9050;48.746;9.232;2023-02-11T06:07:32;2.03;;;1.93;;
17848;SDS011;9050;48.746;9.232;2023-02-11T06:09:59;1.57;;;1.57;;
17848;SDS011;9050;48.746;9.232;2023-02-11T06:12:25;1.50;;;1.50;;
17848;SDS011;9050;48.746;9.232;2023-02-11T06:14:53;2.37;;;2.27;;
17848;SDS011;9050;48.746;9.232;2023-02-11T06:17:19;2.23;;;2.13;;
17848;SDS011;9050;48.746;9.232;2023-02-11T06:19:47;1.67;;;1.63;;
17848;SDS011;9050;48.746;9.232;2023-02-11T06:22:15;1.43;;;1.43;;
17848;SDS011;9050;48.746;9.232;2023-02-11T06:24:42;1.93;;;1.83;;
17848;SDS011;9050;48.746;9.232;2023-02-11T06:27:09;1.27;;;1.27;;
17848;SDS011;9050;48.746;9.232;2023-02-11T06:29:36;1.30;;;1.30;;
17848;SDS011;9050;48.746;9.232;2023-02-11T06:32:03;2.23;;;2.13;;
17848;SDS011;9050;48.746;9.232;2023-02-11T06:34:30;2.10;;;2.00;;
17848;SDS011;9050;48.746;9.232;2023-02-11T06:36:57;2.13;;;2.03;;
17848;SDS011;9050;48.746;9.232;2023-02-11T06:39:25;0.90;;;0.90;;
17848;SDS011;9050;48.746;9.232;2023-02-11T06:41:52;1.37;;;1.37;;
17848;SDS011;9050;48.746;9.232;2023-02-11T06:44:19;2.27;;;2.17;;
17848;SDS011;9050;48.746;9.232;2023-02-11T06:46:46;1.83;;;1.73;;
17848;SDS011;9050;48.746;9.232;2023-02-11T06:49:13;2.20;;;2.10;;
17848;SDS011;9050;48.746;9.232;2023-02-11T06:51:40;1.43;;;1.43;;
17848;SDS011;9050;48.746;9.232;2023-02-11T06:54:07;1.50;;;1.50;;
17848;SDS011;9050;48.746;9.232;2023-02-11T06:56:38;1.87;;;1.77;;
17848;SDS011;9050;48.746;9.232;2023-02-11T06:59:06;2.03;;;1.93;;
17848;SDS011;9050;48.746;9.232;2023-02-11T07:01:33;2.70;;;2.60;;
17848;SDS011;9050;48.746;9.232;2023-02-11T07:04:00;1.87;;;1.77;;
17848;SDS011;9050;48.746;9.232;2023-02-11T07:06:27;1.90;;;1.80;;
17848;SDS011;9050;48.746;9.232;2023-02-11T07:08:54;2.47;;;2.37;;
17848;SDS011;9050;48.746;9.232;2023-02-11T07:11:22;1.90;;;1.80;;
17848;SDS011;9050;48.746;9.232;2023-02-11T07:13:52;2.17;;;2.07;;
17848;SDS011;9050;48.746;9.232;2023-02-11T07:16:21;2.20;;;2.10;;
17848;SDS011;9050;48.746;9.232;2023-02-11T07:18:48;2.43;;;2.33;;
17848;SDS011;9050;48.746;9.232;2023-02-11T07:21:16;1.40;;;1.40;;
17848;SDS011;9050;48.746;9.232;2023-02-11T07:23:44;2.00;;;1.90;;
17848;SDS011;9050;48.746;9.232;2023-02-11T07:26:13;1.60;;;1.60;;
17848;SDS011;9050;48.746;9.232;2023-02-11T07:28:42;2.23;;;2.13;;
17848;SDS011;9050;48.746;9.232;2023-02-11T07:31:11;2.07;;;1.97;;
17848;SDS011;9050;48.746;9.232;2023-02-11T07:33:40;2.10;;;2.00;;
17848;SDS011;9050;48.746;9.232;2023-02-11T07:36:08;2.07;;;1.97;;
17848;SDS011;9050;48.746;9.232;2023-02-11T07:38:36;1.10;;;1.10;;
17848;SDS011;9050;48.746;9.232;2023-02-11T07:41:05;1.97;;;1.87;;
17848;SDS011;9050;48.746;9.232;2023-02-11T07:43:33;1.87;;;1.77;;
17848;SDS011;9050;48.746;9.232;2023-02-11T07:46:01;2.20;;;2.10;;
17848;SDS011;9050;48.746;9.232;2023-02-11T07:48:30;1.67;;;1.63;;
17848;SDS011;9050;48.746;9.232;2023-02-11T07:51:03;1.73;;;1.67;;
17848;SDS011;9050;48.746;9.232;2023-02-11T07:53:31;2.03;;;1.93;;
17848;SDS011;9050;48.746;9.232;2023-02-11T07:55:58;1.57;;;1.57;;
17848;SDS011;9050;48.746;9.232;2023-02-11T07:58:24;1.40;;;1.40;;
17848;SDS011;9050;48.746;9.232;2023-02-11T08:00:51;1.90;;;1.80;;
17848;SDS011;9050;48.746;9.232;2023-02-11T08:03:18;1.60;;;1.60;;
17848;SDS011;9050;48.746;9.232;2023-02-11T08:05:46;1.40;;;1.40;;
17848;SDS011;9050;48.746;9.232;2023-02-11T08:08:13;1.60;;;1.60;;
17848;SDS011;9050;48.746;9.232;2023-02-11T08:10:40;2.03;;;1.93;;
17848;SDS011;9050;48.746;9.232;2023-02-11T08:13:07;1.33;;;1.33;;
17848;SDS011;9050;48.746;9.232;2023-02-11T08:15:34;2.10;;;2.00;;
17848;SDS011;9050;48.746;9.232;2023-02-11T08:18:01;2.23;;;2.13;;
17848;SDS011;9050;48.746;9.232;2023-02-11T08:20:28;2.20;;;2.10;;
17848;SDS011;9050;48.746;9.232;2023-02-11T08:22:56;1.23;;;1.23;;
17848;SDS011;9050;48.746;9.232;2023-02-11T08:25:23;1.80;;;1.70;;
17848;SDS011;9050;48.746;9.232;2023-02-11T08:27:50;1.57;;;1.57;;
17848;SDS011;9050;48.746;9.232;2023-02-11T08:30:17;1.87;;;1.77;;
17848;SDS011;9050;48.746;9.232;2023-02-11T08:32:43;1.13;;;1.13;;
17848;SDS011;9050;48.746;9.232;2023-02-11T08:35:11;1.70;;;1.70;;
17848;SDS011;9050;48.746;9.232;2023-02-11T08:37:38;1.67;;;1.67;;
17848;SDS011;9050;48.746;9.232;2023-02-11T08:40:07;1.93;;;1.83;;
17848;SDS011;9050;48.746;9.232;2023-02-11T08:42:34;1.40;;;1.40;;
17848;SDS011;9050;48.746;9.232;2023-02-11T08:45:01;1.50;;;1.50;;
17848;SDS011;9050;48.746;9.232;2023-02-11T08:47:29;1.50;;;1.50;;
17848;SDS011;9050;48.746;9.232;2023-02-11T08:49:56;1.50;;;1.50;;
17848;SDS011;9050;48.746;9.232;2023-02-11T08:52:23;2.27;;;2.17;;
17848;SDS011;9050;48.746;9.232;2023-02-11T08:54:50;1.50;;;1.50;;
17848;SDS011;9050;48.746;9.232;2023-02-11T08:57:18;1.60;;;1.60;;
17848;SDS011;9050;48.746;9.232;2023-02-11T08:59:45;1.67;;;1.63;;
17848;SDS011;9050;48.746;9.232;2023-02-11T09:02:12;1.73;;;1.70;;
17848;SDS011;9050;48.746;9.232;2023-02-11T09:04:40;1.30;;;1.30;;
17848;SDS011;9050;48.746;9.232;2023-02-11T09:07:07;1.50;;;1.50;;
17848;SDS011;9050;48.746;9.232;2023-02-11T09:09:34;1.60;;;1.60;;
17848;SDS011;9050;48.746;9.232;2023-02-11T09:12:01;1.90;;;1.80;;
17848;SDS011;9050;48.746;9.232;2023-02-11T09:14:29;1.80;;;1.70;;
17848;SDS011;9050;48.746;9.232;2023-02-11T09:16:56;1.90;;;1.80;;
17848;SDS011;9050;48.746;9.232;2023-02-11T09:19:23;2.20;;;2.10;;
17848;SDS011;9050;48.746;9.232;2023-02-11T09:21:50;1.40;;;1.40;;
17848;SDS011;9050;48.746;9.232;2023-02-11T09:24:16;1.90;;;1.80;;
17848;SDS011;9050;48.746;9.232;2023-02-11T09:26:43;1.80;;;1.70;;
17848;SDS011;9050;48.746;9.232;2023-02-11T09:29:10;1.70;;;1.67;;
17848;SDS011;9050;48.746;9.232;2023-02-11T09:31:39;1.53;;;1.53;;
17848;SDS011;9050;48.746;9.232;2023-02-11T09:34:06;1.60;;;1.60;;
17848;SDS011;9050;48.746;9.232;2023-02-11T09:36:34;1.63;;;1.63;;
17848;SDS011;9050;48.746;9.232;2023-02-11T09:39:03;1.40;;;1.40;;
17848;SDS011;9050;48.746;9.232;2023-02-11T09:41:34;1.60;;;1.60;;
17848;SDS011;9050;48.746;9.232;2023-02-11T09:44:09;1.47;;;1.47;;
17848;SDS011;9050;48.746;9.232;2023-02-11T09:46:46;1.93;;;1.83;;
17848;SDS011;9050;48.746;9.232;2023-02-11T09:49:21;1.87;;;1.77;;
17848;SDS011;9050;48.746;9.232;2023-02-11T09:51:52;1.30;;;1.30;;
17848;SDS011;9050;48.746;9.232;2023-02-11T09:54:25;1.67;;;1.67;;
17848;SDS011;9050;48.746;9.232;2023-02-11T09:56:55;1.40;;;1.40;;
17848;SDS011;9050;48.746;9.232;2023-02-11T09:59:22;1.40;;;1.40;;
17848;SDS011;9050;48.746;9.232;2023-02-11T10:01:52;1.57;;;1.57;;
17848;SDS011;9050;48.746;9.232;2023-02-11T10:04:27;1.50;;;1.50;;
17848;SDS011;9050;48.746;9.232;2023-02-11T10:07:08;1.37;;;1.37;;
17848;SDS011;9050;48.746;9.232;2023-02-11T10:09:51;1.30;;;1.30;;
17848;SDS011;9050;48.746;9.232;2023-02-11T10:15:21;1.47;;;1.47;;
17848;SDS011;9050;48.746;9.232;2023-02-11T10:18:07;1.30;;;1.30;;
17848;SDS011;9050;48.746;9.232;2023-02-11T10:21:03;1.10;;;1.10;;
17848;SDS011;9050;48.746;9.232;2023-02-11T10:23:36;1.20;;;1.20;;
17848;SDS011;9050;48.746;9.232;2023-02-11T10:26:09;1.20;;;1.20;;
17848;SDS011;9050;48.746;9.232;2023-02-11T10:28:38;1.30;;;1.30;;
17848;SDS011;9050;48.746;9.232;2023-02-11T10:31:08;0.93;;;0.93;;
17848;SDS011;9050;48.746;9.232;2023-02-11T10:33:42;1.40;;;1.40;;
17848;SDS011;9050;48.746;9.232;2023-02-11T10:36:12;1.10;;;1.10;;
17848;SDS011;9050;48.746;9.232;2023-02-11T10:38:41;1.30;;;1.30;;
17848;SDS011;9050;48.746;9.232;2023-02-11T10:41:08;1.10;;;1.10;;
17848;SDS011;9050;48.746;9.232;2023-02-11T10:43:38;1.17;;;1.17;;
17848;SDS011;9050;48.746;9.232;2023-02-11T10:46:08;1.20;;;1.20;;
17848;SDS011;9050;48.746;9.232;2023-02-11T10:48:44;1.40;;;1.40;;
17848;SDS011;9050;48.746;9.232;2023-02-11T10:51:18;1.07;;;1.07;;
17848;SDS011;9050;48.746;9.232;2023-02-11T10:53:46;1.00;;;1.00;;
17848;SDS011;9050;48.746;9.232;2023-02-11T10:56:18;1.30;;;1.30;;
17848;SDS011;9050;48.746;9.232;2023-02-11T10:58:54;1.10;;;1.10;;
17848;SDS011;9050;48.746;9.232;2023-02-11T11:01:36;1.20;;;1.20;;
17848;SDS011;9050;48.746;9.232;2023-02-11T11:04:23;1.00;;;1.00;;
17848;SDS011;9050;48.746;9.232;2023-02-11T11:07:08;1.30;;;1.30;;
17848;SDS011;9050;48.746;9.232;2023-02-11T11:09:42;1.10;;;1.10;;
17848;SDS011;9050;48.746;9.232;2023-02-11T11:12:22;1.20;;;1.20;;
17848;SDS011;9050;48.746;9.232;2023-02-11T11:15:16;1.43;;;1.43;;
17848;SDS011;9050;48.746;9.232;2023-02-11T11:17:45;1.13;;;1.13;;
17848;SDS011;9050;48.746;9.232;2023-02-11T11:20:17;0.90;;;0.90;;
17848;SDS011;9050;48.746;9.232;2023-02-11T11:22:53;1.20;;;1.20;;
17848;SDS011;9050;48.746;9.232;2023-02-11T11:25:34;1.27;;;1.27;;
17848;SDS011;9050;48.746;9.232;2023-02-11T11:28:04;1.03;;;1.03;;
17848;SDS011;9050;48.746;9.232;2023-02-11T11:30:31;1.40;;;1.40;;
17848;SDS011;9050;48.746;9.232;2023-02-11T11:33:04;1.13;;;1.13;;
17848;SDS011;9050;48.746;9.232;2023-02-11T11:35:45;1.00;;;1.00;;
17848;SDS011;9050;48.746;9.232;2023-02-11T11:38:24;1.03;;;1.03;;
17848;SDS011;9050;48.746;9.232;2023-02-11T11:43:46;1.30;;;1.30;;
17848;SDS011;9050;48.746;9.232;2023-02-11T11:46:24;1.23;;;1.23;;
17848;SDS011;9050;48.746;9.232;2023-02-11T11:48:54;1.33;;;1.33;;
17848;SDS011;9050;48.746;9.232;2023-02-11T11:51:27;1.10;;;1.10;;
17848;SDS011;9050;48.746;9.232;2023-02-11T11:53:56;1.30;;;1.30;;
17848;SDS011;9050;48.746;9.232;2023-02-11T11:56:28;1.40;;;1.40;;
17848;SDS011;9050;48.746;9.232;2023-02-11T11:58:59;1.10;;;1.10;;
17848;SDS011;9050;48.746;9.232;2023-02-11T12:01:30;1.40;;;1.40;;
17848;SDS011;9050;48.746;9.232;2023-02-11T12:04:19;1.20;;;1.20;;
17848;SDS011;9050;48.746;9.232;2023-02-11T12:07:08;0.90;;;0.90;;
17848;SDS011;9050;48.746;9.232;2023-02-11T12:09:43;1.10;;;1.10;;
17848;SDS011;9050;48.746;9.232;2023-02-11T12:12:22;1.10;;;1.10;;
17848;SDS011;9050;48.746;9.232;2023-02-11T12:15:05;1.10;;;1.10;;
17848;SDS011;9050;48.746;9.232;2023-02-11T12:17:45;0.87;;;0.87;;
17848;SDS011;9050;48.746;9.232;2023-02-11T12:20:27;0.80;;;0.80;;
17848;SDS011;9050;48.746;9.232;2023-02-11T12:23:17;1.30;;;1.30;;
17848;SDS011;9050;48.746;9.232;2023-02-11T12:25:55;1.00;;;1.00;;
17848;SDS011;9050;48.746;9.232;2023-02-11T12:28:32;0.90;;;0.90;;
17848;SDS011;9050;48.746;9.232;2023-02-11T12:31:09;1.10;;;1.10;;
17848;SDS011;9050;48.746;9.232;2023-02-11T12:33:48;0.80;;;0.80;;
17848;SDS011;9050;48.746;9.232;2023-02-11T12:36:41;1.00;;;1.00;;
17848;SDS011;9050;48.746;9.232;2023-02-11T12:39:22;1.00;;;1.00;;
17848;SDS011;9050;48.746;9.232;2023-02-11T12:45:16;1.00;;;1.00;;
17848;SDS011;9050;48.746;9.232;2023-02-11T12:47:54;1.17;;;1.17;;
17848;SDS011;9050;48.746;9.232;2023-02-11T12:50:33;0.70;;;0.70;;
17848;SDS011;9050;48.746;9.232;2023-02-11T12:53:14;1.00;;;1.00;;
17848;SDS011;9050;48.746;9.232;2023-02-11T12:56:03;1.20;;;1.20;;
17848;SDS011;9050;48.746;9.232;2023-02-11T12:58:36;1.13;;;1.13;;
17848;SDS011;9050;48.746;9.232;2023-02-11T13:01:05;0.90;;;0.90;;
17848;SDS011;9050;48.746;9.232;2023-02-11T13:03:38;0.90;;;0.90;;
17848;SDS011;9050;48.746;9.232;2023-02-11T13:06:09;0.80;;;0.80;;
17848;SDS011;9050;48.746;9.232;2023-02-11T13:08:39;0.60;;;0.60;;
17848;SDS011;9050;48.746;9.232;2023-02-11T13:11:11;0.90;;;0.90;;
17848;SDS011;9050;48.746;9.232;2023-02-11T13:13:45;0.80;;;0.80;;
17848;SDS011;9050;48.746;9.232;2023-02-11T13:16:18;1.00;;;1.00;;
17848;SDS011;9050;48.746;9.232;2023-02-11T13:18:54;0.77;;;0.77;;
17848;SDS011;9050;48.746;9.232;2023-02-11T13:21:33;0.80;;;0.80;;
17848;SDS011;9050;48.746;9.232;2023-02-11T13:24:10;1.00;;;1.00;;
17848;SDS011;9050;48.746;9.232;2023-02-11T13:26:46;1.00;;;1.00;;
17848;SDS011;9050;48.746;9.232;2023-02-11T13:29:24;1.00;;;1.00;;
17848;SDS011;9050;48.746;9.232;2023-02-11T13:32:04;0.80;;;0.80;;
17848;SDS011;9050;48.746;9.232;2023-02-11T13:34:54;0.80;;;0.80;;
17848;SDS011;9050;48.746;9.232;2023-02-11T13:37:23;0.80;;;0.80;;
17848;SDS011;9050;48.746;9.232;2023-02-11T13:39:56;0.80;;;0.80;;
17848;SDS011;9050;48.746;9.232;2023-02-11T13:42:26;0.80;;;0.80;;
17848;SDS011;9050;48.746;9.232;2023-02-11T13:44:54;0.90;;;0.90;;
17848;SDS011;9050;48.746;9.232;2023-02-11T13:47:24;1.33;;;1.33;;
17848;SDS011;9050;48.746;9.232;2023-02-11T13:49:54;1.00;;;1.00;;
17848;SDS011;9050;48.746;9.232;2023-02-11T13:52:22;0.90;;;0.90;;
17848;SDS011;9050;48.746;9.232;2023-02-11T13:54:52;1.00;;;1.00;;
17848;SDS011;9050;48.746;9.232;2023-02-11T13:57:25;1.00;;;1.00;;
17848;SDS011;9050;48.746;9.232;2023-02-11T13:59:57;1.00;;;1.00;;
17848;SDS011;9050;48.746;9.232;2023-02-11T14:02:34;1.10;;;1.10;;
17848;SDS011;9050;48.746;9.232;2023-02-11T14:05:20;1.10;;;1.10;;
17848;SDS011;9050;48.746;9.232;2023-02-11T14:08:14;1.00;;;1.00;;
17848;SDS011;9050;48.746;9.232;2023-02-11T14:11:01;0.83;;;0.83;;
17848;SDS011;9050;48.746;9.232;2023-02-11T14:13:34;0.97;;;0.97;;
17848;SDS011;9050;48.746;9.232;2023-02-11T14:16:02;0.80;;;0.80;;
17848;SDS011;9050;48.746;9.232;2023-02-11T14:21:29;1.00;;;1.00;;
17848;SDS011;9050;48.746;9.232;2023-02-11T14:27:06;0.90;;;0.90;;
17848;SDS011;9050;48.746;9.232;2023-02-11T14:29:38;0.80;;;0.80;;
17848;SDS011;9050;48.746;9.232;2023-02-11T14:32:12;0.97;;;0.97;;
17848;SDS011;9050;48.746;9.232;2023-02-11T14:34:49;0.90;;;0.90;;
17848;SDS011;9050;48.746;9.232;2023-02-11T14:37:25;1.10;;;1.10;;
17848;SDS011;9050;48.746;9.232;2023-02-11T14:40:02;0.90;;;0.90;;
17848;SDS011;9050;48.746;9.232;2023-02-11T14:42:35;1.07;;;1.07;;
17848;SDS011;9050;48.746;9.232;2023-02-11T14:45:05;0.70;;;0.70;;
17848;SDS011;9050;48.746;9.232;2023-02-11T14:47:39;0.90;;;0.90;;
17848;SDS011;9050;48.746;9.232;2023-02-11T14:50:13;0.93;;;0.93;;
17848;SDS011;9050;48.746;9.232;2023-02-11T14:52:44;0.90;;;0.90;;
17848;SDS011;9050;48.746;9.232;2023-02-11T14:55:13;0.80;;;0.80;;
17848;SDS011;9050;48.746;9.232;2023-02-11T14:57:44;0.70;;;0.70;;
17848;SDS011;9050;48.746;9.232;2023-02-11T15:00:17;0.70;;;0.70;;
17848;SDS011;9050;48.746;9.232;2023-02-11T15:02:46;1.10;;;1.10;;
17848;SDS011;9050;48.746;9.232;2023-02-11T15:05:14;0.90;;;0.90;;
17848;SDS011;9050;48.746;9.232;2023-02-11T15:07:44;0.90;;;0.90;;
17848;SDS011;9050;48.746;9.232;2023-02-11T15:10:20;1.00;;;1.00;;
17848;SDS011;9050;48.746;9.232;2023-02-11T15:12:53;1.17;;;1.17;;
17848;SDS011;9050;48.746;9.232;2023-02-11T15:15:22;0.90;;;0.90;;
17848;SDS011;9050;48.746;9.232;2023-02-11T15:17:49;0.97;;;0.97;;
17848;SDS011;9050;48.746;9.232;2023-02-11T15:20:18;0.93;;;0.93;;
17848;SDS011;9050;48.746;9.232;2023-02-11T15:22:47;0.93;;;0.93;;
17848;SDS011;9050;48.746;9.232;2023-02-11T15:25:20;0.90;;;0.90;;
17848;SDS011;9050;48.746;9.232;2023-02-11T15:27:51;0.93;;;0.93;;
17848;SDS011;9050;48.746;9.232;2023-02-11T15:30:25;1.20;;;1.20;;
17848;SDS011;9050;48.746;9.232;2023-02-11T15:32:54;0.80;;;0.80;;
17848;SDS011;9050;48.746;9.232;2023-02-11T15:35:24;0.90;;;0.90;;
17848;SDS011;9050;48.746;9.232;2023-02-11T15:37:52;0.80;;;0.80;;
17848;SDS011;9050;48.746;9.232;2023-02-11T15:40:21;1.10;;;1.10;;
17848;SDS011;9050;48.746;9.232;2023-02-11T15:42:53;0.90;;;0.90;;
17848;SDS011;9050;48.746;9.232;2023-02-11T15:45:24;1.40;;;1.40;;
17848;SDS011;9050;48.746;9.232;2023-02-11T15:47:55;1.03;;;1.03;;